sensor_id;sensor_type;location;lat;lon;timestamp;P1;durP1;ratioP1;P2;durP2;ratioP2
9884;SDS011;4981;50.966;4.842;2023-02-04T00:00:10;41.80;;;27.17;;
9884;SDS011;4981;50.966;4.842;2023-02-04T00:02:38;54.90;;;30.97;;
9884;SDS011;4981;50.966;4.842;2023-02-04T00:05:07;47.37;;;28.57;;
9884;SDS011;4981;50.966;4.842;2023-02-04T00:07:35;48.60;;;27.97;;
9884;SDS011;4981;50.966;4.842;2023-02-04T00:10:03;45.43;;;28.80;;
9884;SDS011;4981;50.966;4.842;2023-02-04T00:12:32;49.97;;;28.50;;
9884;SDS011;4981;50.966;4.842;2023-02-04T00:15:01;41.10;;;26.53;;
9884;SDS011;4981;50.966;4.842;2023-02-04T00:17:29;47.60;;;27.03;;
9884;SDS011;4981;50.966;4.842;2023-02-04T00:19:57;45.43;;;27.87;;
9884;SDS011;4981;50.966;4.842;2023-02-04T00:22:24;48.87;;;26.70;;
9884;SDS011;4981;50.966;4.842;2023-02-04T00:24:53;49.63;;;26.80;;
9884;SDS011;4981;50.966;4.842;2023-02-04T00:27:20;44.47;;;26.13;;
9884;SDS011;4981;50.966;4.842;2023-02-04T00:29:48;42.47;;;25.83;;
9884;SDS011;4981;50.966;4.842;2023-02-04T00:32:17;45.80;;;25.03;;
9884;SDS011;4981;50.966;4.842;2023-02-04T00:34:44;43.30;;;25.40;;
9884;SDS011;4981;50.966;4.842;2023-02-04T00:37:11;49.13;;;26.40;;
9884;SDS011;4981;50.966;4.842;2023-02-04T00:39:38;48.00;;;26.20;;
9884;SDS011;4981;50.966;4.842;2023-02-04T00:42:06;50.53;;;26.37;;
9884;SDS011;4981;50.966;4.842;2023-02-04T00:44:34;51.67;;;26.07;;
9884;SDS011;4981;50.966;4.842;2023-02-04T00:47:01;48.37;;;24.63;;
9884;SDS011;4981;50.966;4.842;2023-02-04T00:49:30;31.93;;;17.23;;
9884;SDS011;4981;50.966;4.842;2023-02-04T00:51:59;25.37;;;13.97;;
9884;SDS011;4981;50.966;4.842;2023-02-04T00:54:27;32.03;;;14.70;;
9884;SDS011;4981;50.966;4.842;2023-02-04T00:56:54;14.30;;;10.00;;
9884;SDS011;4981;50.966;4.842;2023-02-04T00:59:22;47.93;;;16.47;;
9884;SDS011;4981;50.966;4.842;2023-02-04T01:01:50;3.10;;;1.90;;
9884;SDS011;4981;50.966;4.842;2023-02-04T01:04:17;0.00;;;0.00;;
9884;SDS011;4981;50.966;4.842;2023-02-04T01:06:47;0.20;;;0.20;;
9884;SDS011;4981;50.966;4.842;2023-02-04T01:09:14;0.00;;;0.00;;
9884;SDS011;4981;50.966;4.842;2023-02-04T01:11:42;0.03;;;0.03;;
9884;SDS011;4981;50.966;4.842;2023-02-04T01:14:09;0.00;;;0.00;;
9884;SDS011;4981;50.966;4.842;2023-02-04T01:16:37;0.27;;;0.27;;
9884;SDS011;4981;50.966;4.842;2023-02-04T01:19:04;0.07;;;0.07;;
9884;SDS011;4981;50.966;4.842;2023-02-04T01:21:32;0.00;;;0.00;;
9884;SDS011;4981;50.966;4.842;2023-02-04T01:24:00;0.83;;;0.77;;
9884;SDS011;4981;50.966;4.842;2023-02-04T01:26:28;1.40;;;0.40;;
9884;SDS011;4981;50.966;4.842;2023-02-04T01:28:57;0.00;;;0.00;;
9884;SDS011;4981;50.966;4.842;2023-02-04T01:31:24;0.00;;;0.00;;
9884;SDS011;4981;50.966;4.842;2023-02-04T01:33:52;0.00;;;0.00;;
9884;SDS011;4981;50.966;4.842;2023-02-04T01:36:19;0.00;;;0.00;;
9884;SDS011;4981;50.966;4.842;2023-02-04T01:38:47;0.00;;;0.00;;
9884;SDS011;4981;50.966;4.842;2023-02-04T01:41:17;0.67;;;0.30;;
9884;SDS011;4981;50.966;4.842;2023-02-04T01:43:44;1.03;;;1.03;;
9884;SDS011;4981;50.966;4.842;2023-02-04T01:46:12;0.00;;;0.00;;
9884;SDS011;4981;50.966;4.842;2023-02-04T01:48:41;0.00;;;0.00;;
9884;SDS011;4981;50.966;4.842;2023-02-04T01:51:10;0.00;;;0.00;;
9884;SDS011;4981;50.966;4.842;2023-02-04T01:53:38;0.00;;;0.00;;
9884;SDS011;4981;50.966;4.842;2023-02-04T01:56:10;0.10;;;0.10;;
9884;SDS011;4981;50.966;4.842;2023-02-04T01:58:44;1.90;;;0.83;;
9884;SDS011;4981;50.966;4.842;2023-02-04T02:01:12;3.20;;;0.57;;
9884;SDS011;4981;50.966;4.842;2023-02-04T02:03:40;0.00;;;0.00;;
9884;SDS011;4981;50.966;4.842;2023-02-04T02:06:08;0.00;;;0.00;;
9884;SDS011;4981;50.966;4.842;2023-02-04T02:08:36;0.00;;;0.00;;
9884;SDS011;4981;50.966;4.842;2023-02-04T02:11:04;0.43;;;0.40;;
9884;SDS011;4981;50.966;4.842;2023-02-04T02:13:32;0.00;;;0.00;;
9884;SDS011;4981;50.966;4.842;2023-02-04T02:16:01;0.00;;;0.00;;
9884;SDS011;4981;50.966;4.842;2023-02-04T02:18:28;0.00;;;0.00;;
9884;SDS011;4981;50.966;4.842;2023-02-04T02:20:56;0.00;;;0.00;;
9884;SDS011;4981;50.966;4.842;2023-02-04T02:26:10;0.20;;;0.20;;
9884;SDS011;4981;50.966;4.842;2023-02-04T02:28:38;0.00;;;0.00;;
9884;SDS011;4981;50.966;4.842;2023-02-04T02:31:05;0.00;;;0.00;;
9884;SDS011;4981;50.966;4.842;2023-02-04T02:33:33;0.00;;;0.00;;
9884;SDS011;4981;50.966;4.842;2023-02-04T02:36:01;0.00;;;0.00;;
9884;SDS011;4981;50.966;4.842;2023-02-04T02:38:28;0.00;;;0.00;;
9884;SDS011;4981;50.966;4.842;2023-02-04T02:40:57;0.00;;;0.00;;
9884;SDS011;4981;50.966;4.842;2023-02-04T02:43:26;0.00;;;0.00;;
9884;SDS011;4981;50.966;4.842;2023-02-04T02:45:55;0.00;;;0.00;;
9884;SDS011;4981;50.966;4.842;2023-02-04T02:48:25;0.00;;;0.00;;
9884;SDS011;4981;50.966;4.842;2023-02-04T02:50:52;0.43;;;0.43;;
9884;SDS011;4981;50.966;4.842;2023-02-04T02:53:21;0.00;;;0.00;;
9884;SDS011;4981;50.966;4.842;2023-02-04T02:55:48;0.00;;;0.00;;
9884;SDS011;4981;50.966;4.842;2023-02-04T02:58:20;0.00;;;0.00;;
9884;SDS011;4981;50.966;4.842;2023-02-04T03:00:50;0.40;;;0.40;;
9884;SDS011;4981;50.966;4.842;2023-02-04T03:03:18;0.00;;;0.00;;
9884;SDS011;4981;50.966;4.842;2023-02-04T03:05:50;0.00;;;0.00;;
9884;SDS011;4981;50.966;4.842;2023-02-04T03:08:20;0.00;;;0.00;;
9884;SDS011;4981;50.966;4.842;2023-02-04T03:10:48;0.00;;;0.00;;
9884;SDS011;4981;50.966;4.842;2023-02-04T03:13:16;0.00;;;0.00;;
9884;SDS011;4981;50.966;4.842;2023-02-04T03:15:45;0.00;;;0.00;;
9884;SDS011;4981;50.966;4.842;2023-02-04T03:18:13;0.00;;;0.00;;
9884;SDS011;4981;50.966;4.842;2023-02-04T03:20:44;0.00;;;0.00;;
9884;SDS011;4981;50.966;4.842;2023-02-04T03:23:12;0.27;;;0.27;;
9884;SDS011;4981;50.966;4.842;2023-02-04T03:25:39;0.20;;;0.20;;
9884;SDS011;4981;50.966;4.842;2023-02-04T03:28:07;0.67;;;0.47;;
9884;SDS011;4981;50.966;4.842;2023-02-04T03:30:35;0.00;;;0.00;;
9884;SDS011;4981;50.966;4.842;2023-02-04T03:33:05;0.00;;;0.00;;
9884;SDS011;4981;50.966;4.842;2023-02-04T03:35:32;0.20;;;0.20;;
9884;SDS011;4981;50.966;4.842;2023-02-04T03:38:00;0.20;;;0.20;;
9884;SDS011;4981;50.966;4.842;2023-02-04T03:40:27;0.00;;;0.00;;
9884;SDS011;4981;50.966;4.842;2023-02-04T03:42:55;0.73;;;0.37;;
9884;SDS011;4981;50.966;4.842;2023-02-04T03:45:22;0.00;;;0.00;;
9884;SDS011;4981;50.966;4.842;2023-02-04T03:47:50;0.00;;;0.00;;
9884;SDS011;4981;50.966;4.842;2023-02-04T03:50:19;0.00;;;0.00;;
9884;SDS011;4981;50.966;4.842;2023-02-04T03:52:46;0.00;;;0.00;;
9884;SDS011;4981;50.966;4.842;2023-02-04T03:55:15;0.83;;;0.50;;
9884;SDS011;4981;50.966;4.842;2023-02-04T03:57:43;2.20;;;0.47;;
9884;SDS011;4981;50.966;4.842;2023-02-04T04:00:11;1.27;;;1.07;;
9884;SDS011;4981;50.966;4.842;2023-02-04T04:02:40;0.10;;;0.10;;
9884;SDS011;4981;50.966;4.842;2023-02-04T04:05:08;0.63;;;0.63;;
9884;SDS011;4981;50.966;4.842;2023-02-04T04:07:37;0.00;;;0.00;;
9884;SDS011;4981;50.966;4.842;2023-02-04T04:10:04;0.00;;;0.00;;
9884;SDS011;4981;50.966;4.842;2023-02-04T04:12:32;0.10;;;0.10;;
9884;SDS011;4981;50.966;4.842;2023-02-04T04:14:59;0.00;;;0.00;;
9884;SDS011;4981;50.966;4.842;2023-02-04T04:17:27;0.00;;;0.00;;
9884;SDS011;4981;50.966;4.842;2023-02-04T04:19:54;0.00;;;0.00;;
9884;SDS011;4981;50.966;4.842;2023-02-04T04:22:21;0.00;;;0.00;;
9884;SDS011;4981;50.966;4.842;2023-02-04T04:24:50;0.00;;;0.00;;
9884;SDS011;4981;50.966;4.842;2023-02-04T04:27:18;0.00;;;0.00;;
9884;SDS011;4981;50.966;4.842;2023-02-04T04:29:45;0.33;;;0.30;;
9884;SDS011;4981;50.966;4.842;2023-02-04T04:32:12;0.00;;;0.00;;
9884;SDS011;4981;50.966;4.842;2023-02-04T04:34:40;0.00;;;0.00;;
9884;SDS011;4981;50.966;4.842;2023-02-04T04:37:07;0.00;;;0.00;;
9884;SDS011;4981;50.966;4.842;2023-02-04T04:39:35;0.10;;;0.10;;
9884;SDS011;4981;50.966;4.842;2023-02-04T04:42:04;0.00;;;0.00;;
9884;SDS011;4981;50.966;4.842;2023-02-04T04:44:31;0.10;;;0.10;;
9884;SDS011;4981;50.966;4.842;2023-02-04T04:46:59;0.00;;;0.00;;
9884;SDS011;4981;50.966;4.842;2023-02-04T04:49:27;0.00;;;0.00;;
9884;SDS011;4981;50.966;4.842;2023-02-04T04:51:54;0.20;;;0.20;;
9884;SDS011;4981;50.966;4.842;2023-02-04T04:54:22;7.07;;;0.53;;
9884;SDS011;4981;50.966;4.842;2023-02-04T04:56:49;0.00;;;0.00;;
9884;SDS011;4981;50.966;4.842;2023-02-04T04:59:18;0.00;;;0.00;;
9884;SDS011;4981;50.966;4.842;2023-02-04T05:01:45;0.00;;;0.00;;
9884;SDS011;4981;50.966;4.842;2023-02-04T05:04:12;0.00;;;0.00;;
9884;SDS011;4981;50.966;4.842;2023-02-04T05:06:40;0.70;;;0.53;;
9884;SDS011;4981;50.966;4.842;2023-02-04T05:09:07;0.00;;;0.00;;
9884;SDS011;4981;50.966;4.842;2023-02-04T05:11:35;0.00;;;0.00;;
9884;SDS011;4981;50.966;4.842;2023-02-04T05:14:02;0.00;;;0.00;;
9884;SDS011;4981;50.966;4.842;2023-02-04T05:16:31;0.30;;;0.30;;
9884;SDS011;4981;50.966;4.842;2023-02-04T05:18:58;0.00;;;0.00;;
9884;SDS011;4981;50.966;4.842;2023-02-04T05:21:26;0.00;;;0.00;;
9884;SDS011;4981;50.966;4.842;2023-02-04T05:23:53;0.00;;;0.00;;
9884;SDS011;4981;50.966;4.842;2023-02-04T05:26:20;0.00;;;0.00;;
9884;SDS011;4981;50.966;4.842;2023-02-04T05:28:48;0.00;;;0.00;;
9884;SDS011;4981;50.966;4.842;2023-02-04T05:31:15;0.00;;;0.00;;
9884;SDS011;4981;50.966;4.842;2023-02-04T05:33:44;0.00;;;0.00;;
9884;SDS011;4981;50.966;4.842;2023-02-04T05:36:11;0.00;;;0.00;;
9884;SDS011;4981;50.966;4.842;2023-02-04T05:38:39;0.00;;;0.00;;
9884;SDS011;4981;50.966;4.842;2023-02-04T05:41:06;0.00;;;0.00;;
9884;SDS011;4981;50.966;4.842;2023-02-04T05:43:34;9.83;;;1.03;;
9884;SDS011;4981;50.966;4.842;2023-02-04T05:46:01;0.33;;;0.33;;
9884;SDS011;4981;50.966;4.842;2023-02-04T05:48:29;0.00;;;0.00;;
9884;SDS011;4981;50.966;4.842;2023-02-04T05:50:58;0.00;;;0.00;;
9884;SDS011;4981;50.966;4.842;2023-02-04T05:53:26;0.17;;;0.17;;
9884;SDS011;4981;50.966;4.842;2023-02-04T05:55:53;0.00;;;0.00;;
9884;SDS011;4981;50.966;4.842;2023-02-04T05:58:21;0.10;;;0.10;;
9884;SDS011;4981;50.966;4.842;2023-02-04T06:00:48;0.00;;;0.00;;
9884;SDS011;4981;50.966;4.842;2023-02-04T06:03:16;0.13;;;0.13;;
9884;SDS011;4981;50.966;4.842;2023-02-04T06:05:45;0.00;;;0.00;;
9884;SDS011;4981;50.966;4.842;2023-02-04T06:08:14;0.10;;;0.10;;
9884;SDS011;4981;50.966;4.842;2023-02-04T06:10:42;0.77;;;0.40;;
9884;SDS011;4981;50.966;4.842;2023-02-04T06:13:09;0.00;;;0.00;;
9884;SDS011;4981;50.966;4.842;2023-02-04T06:15:36;2.83;;;2.23;;
9884;SDS011;4981;50.966;4.842;2023-02-04T06:18:04;0.00;;;0.00;;
9884;SDS011;4981;50.966;4.842;2023-02-04T06:20:32;0.00;;;0.00;;
9884;SDS011;4981;50.966;4.842;2023-02-04T06:22:59;0.00;;;0.00;;
9884;SDS011;4981;50.966;4.842;2023-02-04T06:25:28;0.00;;;0.00;;
9884;SDS011;4981;50.966;4.842;2023-02-04T06:27:56;0.30;;;0.30;;
9884;SDS011;4981;50.966;4.842;2023-02-04T06:30:23;0.00;;;0.00;;
9884;SDS011;4981;50.966;4.842;2023-02-04T06:32:51;0.10;;;0.10;;
9884;SDS011;4981;50.966;4.842;2023-02-04T06:35:18;0.07;;;0.07;;
9884;SDS011;4981;50.966;4.842;2023-02-04T06:37:46;0.10;;;0.10;;
9884;SDS011;4981;50.966;4.842;2023-02-04T06:40:13;0.00;;;0.00;;
9884;SDS011;4981;50.966;4.842;2023-02-04T06:42:43;0.10;;;0.10;;
9884;SDS011;4981;50.966;4.842;2023-02-04T06:45:10;0.00;;;0.00;;
9884;SDS011;4981;50.966;4.842;2023-02-04T06:47:38;0.07;;;0.07;;
9884;SDS011;4981;50.966;4.842;2023-02-04T06:50:05;0.00;;;0.00;;
9884;SDS011;4981;50.966;4.842;2023-02-04T06:52:33;0.00;;;0.00;;
9884;SDS011;4981;50.966;4.842;2023-02-04T06:55:01;0.00;;;0.00;;
9884;SDS011;4981;50.966;4.842;2023-02-04T06:57:28;0.00;;;0.00;;
9884;SDS011;4981;50.966;4.842;2023-02-04T06:59:57;0.00;;;0.00;;
9884;SDS011;4981;50.966;4.842;2023-02-04T07:02:25;0.33;;;0.33;;
9884;SDS011;4981;50.966;4.842;2023-02-04T07:04:52;49.43;;;13.23;;
9884;SDS011;4981;50.966;4.842;2023-02-04T07:07:19;54.70;;;13.00;;
9884;SDS011;4981;50.966;4.842;2023-02-04T07:09:47;62.07;;;14.40;;
9884;SDS011;4981;50.966;4.842;2023-02-04T07:12:14;48.90;;;12.33;;
9884;SDS011;4981;50.966;4.842;2023-02-04T07:14:41;52.57;;;12.23;;
9884;SDS011;4981;50.966;4.842;2023-02-04T07:17:10;41.67;;;11.33;;
9884;SDS011;4981;50.966;4.842;2023-02-04T07:19:37;44.70;;;12.33;;
9884;SDS011;4981;50.966;4.842;2023-02-04T07:22:05;43.47;;;12.10;;
9884;SDS011;4981;50.966;4.842;2023-02-04T07:24:32;48.43;;;10.77;;
9884;SDS011;4981;50.966;4.842;2023-02-04T07:26:59;39.83;;;11.67;;
9884;SDS011;4981;50.966;4.842;2023-02-04T07:29:27;36.27;;;11.30;;
9884;SDS011;4981;50.966;4.842;2023-02-04T07:31:54;39.30;;;13.00;;
9884;SDS011;4981;50.966;4.842;2023-02-04T07:34:23;40.93;;;12.37;;
9884;SDS011;4981;50.966;4.842;2023-02-04T07:36:50;41.63;;;11.97;;
9884;SDS011;4981;50.966;4.842;2023-02-04T07:39:18;40.77;;;11.03;;
9884;SDS011;4981;50.966;4.842;2023-02-04T07:41:45;43.90;;;11.27;;
9884;SDS011;4981;50.966;4.842;2023-02-04T07:44:13;34.63;;;11.93;;
9884;SDS011;4981;50.966;4.842;2023-02-04T07:46:40;35.57;;;11.10;;
9884;SDS011;4981;50.966;4.842;2023-02-04T07:49:07;38.70;;;11.43;;
9884;SDS011;4981;50.966;4.842;2023-02-04T07:51:36;41.97;;;12.43;;
9884;SDS011;4981;50.966;4.842;2023-02-04T07:54:04;44.67;;;13.37;;
9884;SDS011;4981;50.966;4.842;2023-02-04T07:56:31;44.47;;;13.37;;
9884;SDS011;4981;50.966;4.842;2023-02-04T07:58:58;34.73;;;12.73;;
9884;SDS011;4981;50.966;4.842;2023-02-04T08:01:25;43.00;;;12.97;;
9884;SDS011;4981;50.966;4.842;2023-02-04T08:03:53;43.43;;;13.27;;
9884;SDS011;4981;50.966;4.842;2023-02-04T08:06:20;45.87;;;13.57;;
9884;SDS011;4981;50.966;4.842;2023-02-04T08:08:49;38.40;;;13.40;;
9884;SDS011;4981;50.966;4.842;2023-02-04T08:11:16;46.67;;;13.53;;
9884;SDS011;4981;50.966;4.842;2023-02-04T08:13:44;36.90;;;13.90;;
9884;SDS011;4981;50.966;4.842;2023-02-04T08:16:11;52.47;;;16.00;;
9884;SDS011;4981;50.966;4.842;2023-02-04T08:18:38;49.17;;;15.87;;
9884;SDS011;4981;50.966;4.842;2023-02-04T08:21:05;50.57;;;15.50;;
9884;SDS011;4981;50.966;4.842;2023-02-04T08:23:33;51.63;;;15.80;;
9884;SDS011;4981;50.966;4.842;2023-02-04T08:26:07;56.47;;;14.83;;
9884;SDS011;4981;50.966;4.842;2023-02-04T08:28:35;44.93;;;15.37;;
9884;SDS011;4981;50.966;4.842;2023-02-04T08:31:02;46.43;;;16.17;;
9884;SDS011;4981;50.966;4.842;2023-02-04T08:33:30;49.67;;;16.13;;
9884;SDS011;4981;50.966;4.842;2023-02-04T08:35:58;50.67;;;15.23;;
9884;SDS011;4981;50.966;4.842;2023-02-04T08:38:25;47.10;;;14.97;;
9884;SDS011;4981;50.966;4.842;2023-02-04T08:40:53;41.77;;;14.20;;
9884;SDS011;4981;50.966;4.842;2023-02-04T08:43:22;46.90;;;14.60;;
9884;SDS011;4981;50.966;4.842;2023-02-04T08:45:49;45.20;;;14.57;;
9884;SDS011;4981;50.966;4.842;2023-02-04T08:48:16;50.27;;;15.70;;
9884;SDS011;4981;50.966;4.842;2023-02-04T08:50:43;52.77;;;14.97;;
9884;SDS011;4981;50.966;4.842;2023-02-04T08:53:11;43.63;;;14.00;;
9884;SDS011;4981;50.966;4.842;2023-02-04T08:55:38;47.43;;;14.60;;
9884;SDS011;4981;50.966;4.842;2023-02-04T08:58:05;55.93;;;14.80;;
9884;SDS011;4981;50.966;4.842;2023-02-04T09:00:34;48.23;;;14.87;;
9884;SDS011;4981;50.966;4.842;2023-02-04T09:03:02;45.30;;;15.10;;
9884;SDS011;4981;50.966;4.842;2023-02-04T09:05:29;54.83;;;14.97;;
9884;SDS011;4981;50.966;4.842;2023-02-04T09:07:56;45.27;;;15.10;;
9884;SDS011;4981;50.966;4.842;2023-02-04T09:10:24;46.23;;;15.47;;
9884;SDS011;4981;50.966;4.842;2023-02-04T09:12:51;50.30;;;18.37;;
9884;SDS011;4981;50.966;4.842;2023-02-04T09:15:20;55.37;;;17.83;;
9884;SDS011;4981;50.966;4.842;2023-02-04T09:17:49;49.70;;;17.93;;
9884;SDS011;4981;50.966;4.842;2023-02-04T09:20:18;47.33;;;16.20;;
9884;SDS011;4981;50.966;4.842;2023-02-04T09:22:46;48.73;;;16.70;;
9884;SDS011;4981;50.966;4.842;2023-02-04T09:25:14;29.87;;;10.90;;
9884;SDS011;4981;50.966;4.842;2023-02-04T09:27:41;37.97;;;12.97;;
9884;SDS011;4981;50.966;4.842;2023-02-04T09:30:09;30.87;;;9.67;;
9884;SDS011;4981;50.966;4.842;2023-02-04T09:32:37;23.07;;;9.67;;
9884;SDS011;4981;50.966;4.842;2023-02-04T09:35:07;34.67;;;12.10;;
9884;SDS011;4981;50.966;4.842;2023-02-04T09:37:35;24.40;;;10.73;;
9884;SDS011;4981;50.966;4.842;2023-02-04T09:40:02;36.00;;;10.97;;
9884;SDS011;4981;50.966;4.842;2023-02-04T09:42:30;30.73;;;10.67;;
9884;SDS011;4981;50.966;4.842;2023-02-04T09:44:58;26.23;;;10.93;;
9884;SDS011;4981;50.966;4.842;2023-02-04T09:47:27;27.30;;;9.63;;
9884;SDS011;4981;50.966;4.842;2023-02-04T09:49:55;25.53;;;8.83;;
9884;SDS011;4981;50.966;4.842;2023-02-04T09:52:24;23.00;;;8.57;;
9884;SDS011;4981;50.966;4.842;2023-02-04T09:54:53;16.27;;;6.07;;
9884;SDS011;4981;50.966;4.842;2023-02-04T09:57:21;16.30;;;5.97;;
9884;SDS011;4981;50.966;4.842;2023-02-04T09:59:48;18.93;;;6.53;;
9884;SDS011;4981;50.966;4.842;2023-02-04T10:02:21;21.67;;;8.43;;
9884;SDS011;4981;50.966;4.842;2023-02-04T10:04:50;16.30;;;5.17;;
9884;SDS011;4981;50.966;4.842;2023-02-04T10:07:21;19.43;;;6.03;;
9884;SDS011;4981;50.966;4.842;2023-02-04T10:09:52;14.03;;;6.00;;
9884;SDS011;4981;50.966;4.842;2023-02-04T10:12:20;22.70;;;9.57;;
9884;SDS011;4981;50.966;4.842;2023-02-04T10:14:47;25.30;;;9.33;;
9884;SDS011;4981;50.966;4.842;2023-02-04T10:17:17;23.13;;;9.27;;
9884;SDS011;4981;50.966;4.842;2023-02-04T10:19:47;30.20;;;10.20;;
9884;SDS011;4981;50.966;4.842;2023-02-04T10:22:15;27.07;;;9.27;;
9884;SDS011;4981;50.966;4.842;2023-02-04T10:24:45;19.50;;;8.43;;
9884;SDS011;4981;50.966;4.842;2023-02-04T10:27:14;18.93;;;7.80;;
9884;SDS011;4981;50.966;4.842;2023-02-04T10:29:42;16.70;;;8.20;;
9884;SDS011;4981;50.966;4.842;2023-02-04T10:32:25;22.70;;;9.43;;
9884;SDS011;4981;50.966;4.842;2023-02-04T10:34:56;23.30;;;9.03;;
9884;SDS011;4981;50.966;4.842;2023-02-04T10:37:25;23.73;;;9.90;;
9884;SDS011;4981;50.966;4.842;2023-02-04T10:39:53;19.17;;;9.23;;
9884;SDS011;4981;50.966;4.842;2023-02-04T10:42:22;20.93;;;10.07;;
9884;SDS011;4981;50.966;4.842;2023-02-04T10:44:51;20.47;;;8.70;;
9884;SDS011;4981;50.966;4.842;2023-02-04T10:47:19;17.37;;;8.17;;
9884;SDS011;4981;50.966;4.842;2023-02-04T10:49:51;22.17;;;9.17;;
9884;SDS011;4981;50.966;4.842;2023-02-04T10:52:21;20.70;;;10.67;;
9884;SDS011;4981;50.966;4.842;2023-02-04T10:54:50;25.07;;;9.87;;
9884;SDS011;4981;50.966;4.842;2023-02-04T10:57:18;19.13;;;8.87;;
9884;SDS011;4981;50.966;4.842;2023-02-04T10:59:50;21.50;;;9.50;;
9884;SDS011;4981;50.966;4.842;2023-02-04T11:02:35;20.53;;;9.97;;
9884;SDS011;4981;50.966;4.842;2023-02-04T11:05:09;24.40;;;12.77;;
9884;SDS011;4981;50.966;4.842;2023-02-04T11:07:39;27.33;;;11.33;;
9884;SDS011;4981;50.966;4.842;2023-02-04T11:10:10;20.43;;;10.33;;
9884;SDS011;4981;50.966;4.842;2023-02-04T11:12:42;15.63;;;8.33;;
9884;SDS011;4981;50.966;4.842;2023-02-04T11:18:06;24.23;;;9.87;;
9884;SDS011;4981;50.966;4.842;2023-02-04T11:20:35;16.90;;;8.90;;
9884;SDS011;4981;50.966;4.842;2023-02-04T11:23:13;17.80;;;8.47;;
9884;SDS011;4981;50.966;4.842;2023-02-04T11:25:42;16.53;;;8.30;;
9884;SDS011;4981;50.966;4.842;2023-02-04T11:28:14;19.30;;;7.70;;
9884;SDS011;4981;50.966;4.842;2023-02-04T11:30:42;15.57;;;8.80;;
9884;SDS011;4981;50.966;4.842;2023-02-04T11:33:21;20.93;;;9.17;;
9884;SDS011;4981;50.966;4.842;2023-02-04T11:35:59;16.27;;;7.13;;
9884;SDS011;4981;50.966;4.842;2023-02-04T11:38:29;13.57;;;6.80;;
9884;SDS011;4981;50.966;4.842;2023-02-04T11:40:57;18.17;;;8.17;;
9884;SDS011;4981;50.966;4.842;2023-02-04T11:43:27;18.03;;;7.10;;
9884;SDS011;4981;50.966;4.842;2023-02-04T11:46:00;15.80;;;8.43;;
9884;SDS011;4981;50.966;4.842;2023-02-04T11:48:30;15.23;;;6.90;;
9884;SDS011;4981;50.966;4.842;2023-02-04T11:50:59;13.83;;;7.43;;
9884;SDS011;4981;50.966;4.842;2023-02-04T11:53:28;22.63;;;12.20;;
9884;SDS011;4981;50.966;4.842;2023-02-04T11:55:56;11.80;;;7.30;;
9884;SDS011;4981;50.966;4.842;2023-02-04T11:58:23;9.53;;;5.80;;
9884;SDS011;4981;50.966;4.842;2023-02-04T12:00:53;10.83;;;6.70;;
9884;SDS011;4981;50.966;4.842;2023-02-04T12:03:22;15.20;;;6.80;;
9884;SDS011;4981;50.966;4.842;2023-02-04T12:05:50;13.00;;;7.23;;
9884;SDS011;4981;50.966;4.842;2023-02-04T12:11:03;11.30;;;6.67;;
9884;SDS011;4981;50.966;4.842;2023-02-04T12:13:31;17.87;;;6.70;;
9884;SDS011;4981;50.966;4.842;2023-02-04T12:16:02;14.93;;;6.77;;
9884;SDS011;4981;50.966;4.842;2023-02-04T12:18:30;14.47;;;7.20;;
9884;SDS011;4981;50.966;4.842;2023-02-04T12:20:59;13.83;;;7.80;;
9884;SDS011;4981;50.966;4.842;2023-02-04T12:23:28;16.13;;;7.37;;
9884;SDS011;4981;50.966;4.842;2023-02-04T12:25:56;13.13;;;7.30;;
9884;SDS011;4981;50.966;4.842;2023-02-04T12:28:24;12.30;;;7.80;;
9884;SDS011;4981;50.966;4.842;2023-02-04T12:30:52;18.23;;;8.03;;
9884;SDS011;4981;50.966;4.842;2023-02-04T12:33:21;18.10;;;8.20;;
9884;SDS011;4981;50.966;4.842;2023-02-04T12:35:48;14.67;;;8.20;;
9884;SDS011;4981;50.966;4.842;2023-02-04T12:38:16;18.37;;;8.97;;
9884;SDS011;4981;50.966;4.842;2023-02-04T12:40:44;15.33;;;9.80;;
9884;SDS011;4981;50.966;4.842;2023-02-04T12:43:11;16.80;;;10.13;;
9884;SDS011;4981;50.966;4.842;2023-02-04T12:45:39;16.20;;;9.33;;
9884;SDS011;4981;50.966;4.842;2023-02-04T12:48:10;18.50;;;9.80;;
9884;SDS011;4981;50.966;4.842;2023-02-04T12:50:41;19.03;;;10.20;;
9884;SDS011;4981;50.966;4.842;2023-02-04T12:53:08;12.87;;;7.13;;
9884;SDS011;4981;50.966;4.842;2023-02-04T12:55:36;14.27;;;8.50;;
9884;SDS011;4981;50.966;4.842;2023-02-04T12:58:04;15.27;;;8.00;;
9884;SDS011;4981;50.966;4.842;2023-02-04T13:00:31;20.87;;;9.00;;
9884;SDS011;4981;50.966;4.842;2023-02-04T13:02:59;30.30;;;16.70;;
9884;SDS011;4981;50.966;4.842;2023-02-04T13:05:26;28.47;;;14.80;;
9884;SDS011;4981;50.966;4.842;2023-02-04T13:07:55;19.30;;;7.97;;
9884;SDS011;4981;50.966;4.842;2023-02-04T13:10:23;13.60;;;7.50;;
9884;SDS011;4981;50.966;4.842;2023-02-04T13:12:50;13.67;;;7.40;;
9884;SDS011;4981;50.966;4.842;2023-02-04T13:15:18;14.23;;;7.20;;
9884;SDS011;4981;50.966;4.842;2023-02-04T13:17:45;18.53;;;8.07;;
9884;SDS011;4981;50.966;4.842;2023-02-04T13:20:13;10.57;;;6.57;;
9884;SDS011;4981;50.966;4.842;2023-02-04T13:22:41;14.73;;;7.10;;
9884;SDS011;4981;50.966;4.842;2023-02-04T13:25:10;9.60;;;6.33;;
9884;SDS011;4981;50.966;4.842;2023-02-04T13:27:37;17.40;;;8.63;;
9884;SDS011;4981;50.966;4.842;2023-02-04T13:30:06;16.10;;;7.50;;
9884;SDS011;4981;50.966;4.842;2023-02-04T13:32:35;14.00;;;7.13;;
9884;SDS011;4981;50.966;4.842;2023-02-04T13:35:02;12.70;;;7.17;;
9884;SDS011;4981;50.966;4.842;2023-02-04T13:37:30;13.57;;;7.70;;
9884;SDS011;4981;50.966;4.842;2023-02-04T13:39:57;17.63;;;8.37;;
9884;SDS011;4981;50.966;4.842;2023-02-04T13:42:26;16.13;;;10.70;;
9884;SDS011;4981;50.966;4.842;2023-02-04T13:44:53;14.37;;;9.50;;
9884;SDS011;4981;50.966;4.842;2023-02-04T13:47:21;13.57;;;8.83;;
9884;SDS011;4981;50.966;4.842;2023-02-04T13:49:48;15.13;;;8.83;;
9884;SDS011;4981;50.966;4.842;2023-02-04T13:52:16;13.17;;;8.13;;
9884;SDS011;4981;50.966;4.842;2023-02-04T13:54:43;10.53;;;7.20;;
9884;SDS011;4981;50.966;4.842;2023-02-04T13:57:11;9.77;;;7.70;;
9884;SDS011;4981;50.966;4.842;2023-02-04T13:59:40;11.00;;;6.90;;
9884;SDS011;4981;50.966;4.842;2023-02-04T14:02:07;9.37;;;6.77;;
9884;SDS011;4981;50.966;4.842;2023-02-04T14:04:35;13.47;;;7.23;;
9884;SDS011;4981;50.966;4.842;2023-02-04T14:07:02;16.03;;;8.27;;
9884;SDS011;4981;50.966;4.842;2023-02-04T14:09:29;13.87;;;7.67;;
9884;SDS011;4981;50.966;4.842;2023-02-04T14:11:57;15.93;;;8.33;;
9884;SDS011;4981;50.966;4.842;2023-02-04T14:14:24;12.50;;;7.70;;
9884;SDS011;4981;50.966;4.842;2023-02-04T14:16:53;13.63;;;7.43;;
9884;SDS011;4981;50.966;4.842;2023-02-04T14:19:20;14.63;;;8.07;;
9884;SDS011;4981;50.966;4.842;2023-02-04T14:21:51;10.87;;;7.73;;
9884;SDS011;4981;50.966;4.842;2023-02-04T14:24:19;11.10;;;7.87;;
9884;SDS011;4981;50.966;4.842;2023-02-04T14:26:46;12.03;;;7.87;;
9884;SDS011;4981;50.966;4.842;2023-02-04T14:29:14;12.03;;;8.03;;
9884;SDS011;4981;50.966;4.842;2023-02-04T14:31:41;12.30;;;7.90;;
9884;SDS011;4981;50.966;4.842;2023-02-04T14:34:10;12.00;;;8.23;;
9884;SDS011;4981;50.966;4.842;2023-02-04T14:36:37;13.23;;;7.27;;
9884;SDS011;4981;50.966;4.842;2023-02-04T14:39:05;14.37;;;8.50;;
9884;SDS011;4981;50.966;4.842;2023-02-04T14:41:32;16.67;;;8.83;;
9884;SDS011;4981;50.966;4.842;2023-02-04T14:43:59;15.73;;;8.70;;
9884;SDS011;4981;50.966;4.842;2023-02-04T14:46:27;12.57;;;8.07;;
9884;SDS011;4981;50.966;4.842;2023-02-04T14:48:54;13.80;;;8.70;;
9884;SDS011;4981;50.966;4.842;2023-02-04T14:51:23;15.20;;;8.77;;
9884;SDS011;4981;50.966;4.842;2023-02-04T14:53:51;13.87;;;9.20;;
9884;SDS011;4981;50.966;4.842;2023-02-04T14:56:18;18.57;;;10.57;;
9884;SDS011;4981;50.966;4.842;2023-02-04T14:58:45;21.13;;;9.73;;
9884;SDS011;4981;50.966;4.842;2023-02-04T15:01:13;15.03;;;9.37;;
9884;SDS011;4981;50.966;4.842;2023-02-04T15:03:40;17.10;;;9.03;;
9884;SDS011;4981;50.966;4.842;2023-02-04T15:06:08;14.23;;;9.70;;
9884;SDS011;4981;50.966;4.842;2023-02-04T15:08:37;14.37;;;9.83;;
9884;SDS011;4981;50.966;4.842;2023-02-04T15:11:04;15.43;;;9.27;;
9884;SDS011;4981;50.966;4.842;2023-02-04T15:13:31;15.00;;;10.17;;
9884;SDS011;4981;50.966;4.842;2023-02-04T15:15:59;16.30;;;9.80;;